createdAt,value
2022-11-21T00:00:46.603Z,24.5
2022-11-21T00:01:49.116Z,24.2
2022-11-21T00:02:51.255Z,24.5
2022-11-21T00:03:53.458Z,24.2
2022-11-21T00:04:55.680Z,24.3
2022-11-21T00:05:58.167Z,24.5
2022-11-21T00:07:00.424Z,24.1
2022-11-21T00:08:02.110Z,24.2
2022-11-21T00:09:03.759Z,24.4
2022-11-21T00:10:06.237Z,24.5
2022-11-21T00:11:08.720Z,24.4
2022-11-21T00:12:11.204Z,24.6
2022-11-21T00:13:13.671Z,24.2
2022-11-21T00:14:15.871Z,24.3
2022-11-21T00:15:18.078Z,24.4
2022-11-21T00:16:20.322Z,24.4
2022-11-21T00:17:22.793Z,24.6
2022-11-21T00:18:25.288Z,24.3
2022-11-21T00:19:26.936Z,24.4
2022-11-21T00:20:29.445Z,24.5
2022-11-21T00:21:31.096Z,24.6
2022-11-21T00:22:32.734Z,24.7
2022-11-21T00:23:35.209Z,24.6
2022-11-21T00:24:37.151Z,24.5
2022-11-21T00:25:39.638Z,24.7
2022-11-21T00:26:41.853Z,24.5
2022-11-21T00:27:44.329Z,24.4
2022-11-21T00:28:46.813Z,24.7
2022-11-21T00:29:49.295Z,24.5
2022-11-21T00:30:51.767Z,24.7
2022-11-21T00:31:54.244Z,24.2
2022-11-21T00:32:56.736Z,24.5
2022-11-21T00:33:58.934Z,24.6
2022-11-21T00:35:01.143Z,24.6
2022-11-21T00:36:03.620Z,24.5
2022-11-21T00:37:06.120Z,24.7
2022-11-21T00:38:08.333Z,24.7
2022-11-21T00:39:10.825Z,24.8
2022-11-21T00:40:13.050Z,24.5
2022-11-21T00:41:15.525Z,24.6
2022-11-21T00:42:18.005Z,24.6
2022-11-21T00:43:20.250Z,24.6
2022-11-21T00:44:22.753Z,24.5
2022-11-21T00:45:25.394Z,24.8
2022-11-21T00:46:27.607Z,24.6
2022-11-21T00:47:29.815Z,24.8
2022-11-21T00:48:32.044Z,24.5
2022-11-21T00:49:34.546Z,24.7
2022-11-21T00:50:37.018Z,24.4
2022-11-21T00:51:39.566Z,24.6
2022-11-21T00:52:42.041Z,24.8
2022-11-21T00:53:44.221Z,24.3
2022-11-21T00:54:46.704Z,24.6
2022-11-21T00:55:49.189Z,24.6
2022-11-21T00:56:51.675Z,24.6
2022-11-21T00:57:53.875Z,24.7
2022-11-21T00:58:56.374Z,24.6
2022-11-21T00:59:58.565Z,24.7
2022-11-21T01:01:00.577Z,24.7
2022-11-21T01:02:03.145Z,24.7
2022-11-21T01:03:05.348Z,24.7
2022-11-21T01:04:07.542Z,24.8
2022-11-21T01:05:09.744Z,24.8
2022-11-21T01:06:11.925Z,24.8
2022-11-21T01:07:14.588Z,24.8
2022-11-21T01:08:17.464Z,24.8
2022-11-21T01:09:19.994Z,24.8
2022-11-21T01:10:22.481Z,24.8
2022-11-21T01:11:24.961Z,24.8
2022-11-21T01:12:27.467Z,24.7
2022-11-21T01:13:30.026Z,24.8
2022-11-21T01:14:32.221Z,24.6
2022-11-21T01:15:34.698Z,24.8
2022-11-21T01:16:37.223Z,24.7
2022-11-21T01:17:39.419Z,24.9
2022-11-21T01:18:41.320Z,24.9
2022-11-21T01:19:43.809Z,24.8
2022-11-21T01:20:45.707Z,24.8
2022-11-21T01:21:47.915Z,24.6
2022-11-21T01:22:50.116Z,24.8
2022-11-21T01:23:52.622Z,24.8
2022-11-21T01:24:54.847Z,24.8
2022-11-21T01:25:57.334Z,24.8
2022-11-21T01:26:59.808Z,24.8
2022-11-21T01:28:02.046Z,24.9
2022-11-21T01:29:04.628Z,24.8
2022-11-21T01:30:06.537Z,25
2022-11-21T01:31:08.474Z,24.9
2022-11-21T01:32:10.961Z,25
2022-11-21T01:33:13.435Z,25
2022-11-21T01:34:15.904Z,24.9
2022-11-21T01:35:18.385Z,24.8
2022-11-21T01:36:20.859Z,24.8
2022-11-21T01:37:23.065Z,24.9
2022-11-21T01:38:25.559Z,24.9
2022-11-21T01:39:27.489Z,24.8
2022-11-21T01:40:29.694Z,24.9
2022-11-21T01:41:32.173Z,24.8
2022-11-21T01:42:34.479Z,24.9
2022-11-21T01:43:36.977Z,24.9
2022-11-21T01:44:39.559Z,24.8
2022-11-21T01:45:41.781Z,24.6
2022-11-21T01:46:44.247Z,24.8
2022-11-21T01:47:46.751Z,25
2022-11-21T01:48:49.237Z,25
2022-11-21T01:49:51.165Z,24.8
2022-11-21T01:50:53.642Z,25
2022-11-21T01:51:56.120Z,24.8
2022-11-21T01:52:58.599Z,25
2022-11-21T01:54:00.805Z,24.9
2022-11-21T01:55:03.002Z,25
2022-11-21T01:56:05.204Z,24.9
2022-11-21T01:57:07.139Z,25.1
2022-11-21T01:58:09.608Z,24.9
2022-11-21T01:59:12.127Z,25.1
2022-11-21T02:00:14.670Z,25.1
2022-11-21T02:01:17.205Z,24.9
2022-11-21T02:02:19.758Z,24.9
2022-11-21T02:03:22.230Z,24.9
2022-11-21T02:04:24.857Z,24.9
2022-11-21T02:05:28.356Z,25
2022-11-21T02:06:29.727Z,25
2022-11-21T02:07:32.265Z,24.8
2022-11-21T02:08:34.518Z,25.1
2022-11-21T02:09:36.707Z,24.8
2022-11-21T02:10:39.179Z,24.7
2022-11-21T02:11:41.659Z,24.9
2022-11-21T02:12:44.141Z,24.8
2022-11-21T02:13:46.087Z,24.9
2022-11-21T02:14:48.587Z,25
2022-11-21T02:15:51.144Z,24.8
2022-11-21T02:16:53.619Z,24.9
2022-11-21T02:17:55.823Z,25
2022-11-21T02:18:58.029Z,25
2022-11-21T02:19:59.953Z,25.2
2022-11-21T02:21:02.156Z,25.1
2022-11-21T02:22:04.064Z,24.9
2022-11-21T02:23:06.537Z,25.1
2022-11-21T02:24:08.458Z,24.9
2022-11-21T02:25:10.946Z,25
2022-11-21T02:26:13.432Z,25.2
2022-11-21T02:27:15.643Z,25.2
2022-11-21T02:28:17.842Z,25
2022-11-21T02:29:20.403Z,25
2022-11-21T02:30:22.918Z,25.1
2022-11-21T02:31:25.481Z,25
2022-11-21T02:32:27.953Z,25
2022-11-21T02:33:30.439Z,25
2022-11-21T02:34:32.943Z,25.1
2022-11-21T02:35:35.441Z,24.9
2022-11-21T02:36:37.917Z,25
2022-11-21T02:37:40.108Z,25.1
2022-11-21T02:38:42.310Z,24.9
2022-11-21T02:39:44.798Z,24.9
2022-11-21T02:40:47.282Z,25.1
2022-11-21T02:41:49.763Z,25
2022-11-21T02:42:52.884Z,24.8
2022-11-21T02:43:55.474Z,25
2022-11-21T02:44:57.974Z,24.9
2022-11-21T02:46:00.485Z,25.2
2022-11-21T02:47:03.068Z,25.1
2022-11-21T02:48:05.547Z,24.8
2022-11-21T02:49:07.821Z,25.2
2022-11-21T02:50:09.740Z,25
2022-11-21T02:51:12.234Z,24.8
2022-11-21T02:52:14.427Z,25
2022-11-21T02:53:16.909Z,24.8
2022-11-21T02:54:19.149Z,25
2022-11-21T02:55:21.103Z,25
2022-11-21T02:56:23.024Z,25.1
2022-11-21T02:57:26.855Z,25
2022-11-21T02:58:29.052Z,24.9
2022-11-21T02:59:31.525Z,24.9
2022-11-21T03:00:34.096Z,25
2022-11-21T03:01:36.811Z,25.1
2022-11-21T03:02:39.390Z,24.9
2022-11-21T03:03:41.884Z,25
2022-11-21T03:04:44.363Z,24.9
2022-11-21T03:05:46.574Z,25
2022-11-21T03:06:48.767Z,24.8
2022-11-21T03:07:50.969Z,24.9
2022-11-21T03:08:52.885Z,24.8
2022-11-21T03:09:54.271Z,25
2022-11-21T03:10:56.746Z,25
2022-11-21T03:11:59.253Z,25
2022-11-21T03:13:01.727Z,25.2
2022-11-21T03:14:03.997Z,25.3
2022-11-21T03:15:06.200Z,25.1
2022-11-21T03:16:08.678Z,25.2
2022-11-21T03:17:11.198Z,25
2022-11-21T03:18:13.756Z,24.9
2022-11-21T03:19:16.228Z,25
2022-11-21T03:20:18.426Z,25.1
2022-11-21T03:21:20.626Z,25
2022-11-21T03:22:23.097Z,24.9
2022-11-21T03:23:25.568Z,24.9
2022-11-21T03:24:28.282Z,24.9
2022-11-21T03:25:31.752Z,24.8
2022-11-21T03:26:33.700Z,25.1
2022-11-21T03:27:36.185Z,25
2022-11-21T03:28:38.655Z,24.8
2022-11-21T03:29:41.127Z,25
2022-11-21T03:30:43.308Z,25
2022-11-21T03:31:45.779Z,24.9
2022-11-21T03:32:48.180Z,25.1
2022-11-21T03:33:50.768Z,25
2022-11-21T03:34:52.970Z,24.9
2022-11-21T03:35:55.202Z,25
2022-11-21T03:36:57.398Z,25.2
2022-11-21T03:37:59.886Z,24.9
2022-11-21T03:39:02.073Z,25
2022-11-21T03:40:04.289Z,25.1
2022-11-21T03:41:06.934Z,25.1
2022-11-21T03:42:09.141Z,25.2
2022-11-21T03:43:11.335Z,25
2022-11-21T03:44:13.816Z,25
2022-11-21T03:45:16.291Z,25
2022-11-21T03:46:18.816Z,25.3
2022-11-21T03:47:20.872Z,25.3
2022-11-21T03:48:23.434Z,25.2
2022-11-21T03:49:26.023Z,25.1
2022-11-21T03:50:28.502Z,25.2
2022-11-21T03:51:30.974Z,25.1
2022-11-21T03:52:33.462Z,25.3
2022-11-21T03:53:35.102Z,25.2
2022-11-21T03:54:37.581Z,25
2022-11-21T03:55:39.772Z,25.1
2022-11-21T03:56:42.255Z,25.1
2022-11-21T03:57:44.458Z,25.2
2022-11-21T03:58:46.662Z,25.2
2022-11-21T03:59:48.293Z,25.1
2022-11-21T04:00:50.497Z,25.2
2022-11-21T04:01:52.438Z,25.1
2022-11-21T04:02:54.854Z,25.2
2022-11-21T04:03:57.063Z,25.2
2022-11-21T04:04:59.697Z,25
2022-11-21T04:06:02.165Z,25.1
2022-11-21T04:07:04.715Z,25.1
2022-11-21T04:08:07.217Z,25.1
2022-11-21T04:09:09.694Z,25.2
2022-11-21T04:10:11.916Z,25.1
2022-11-21T04:11:14.391Z,25.1
2022-11-21T04:12:16.343Z,25.1
2022-11-21T04:13:18.816Z,25.1
2022-11-21T04:14:21.035Z,25.1
2022-11-21T04:15:23.238Z,25
2022-11-21T04:16:25.713Z,25.1
2022-11-21T04:17:28.196Z,25
2022-11-21T04:18:30.678Z,25.1
2022-11-21T04:19:32.885Z,24.9
2022-11-21T04:20:35.434Z,24.7
2022-11-21T04:21:37.365Z,25
2022-11-21T04:22:39.562Z,25
2022-11-21T04:23:41.745Z,24.9
2022-11-21T04:24:43.941Z,24.7
2022-11-21T04:25:46.416Z,24.9
2022-11-21T04:26:48.894Z,24.9
2022-11-21T04:27:51.368Z,25
2022-11-21T04:28:53.570Z,25
2022-11-21T04:29:55.476Z,24.8
2022-11-21T04:31:00.591Z,25
2022-11-21T04:32:02.944Z,24.9
2022-11-21T04:33:05.120Z,24.9
2022-11-21T04:34:07.606Z,24.9
2022-11-21T04:35:09.852Z,24.9
2022-11-21T04:36:12.463Z,24.6
2022-11-21T04:37:14.972Z,24.8
2022-11-21T04:38:17.795Z,24.8
2022-11-21T04:39:20.271Z,24.7
2022-11-21T04:40:22.482Z,24.7
2022-11-21T04:41:24.962Z,24.7
2022-11-21T04:42:27.159Z,24.8
2022-11-21T04:43:29.386Z,24.8
2022-11-21T04:44:32.006Z,24.7
2022-11-21T04:45:33.997Z,24.8
2022-11-21T04:46:36.517Z,24.8
2022-11-21T04:47:38.722Z,24.8
2022-11-21T04:48:41.214Z,24.8
2022-11-21T04:49:43.706Z,24.8
2022-11-21T04:50:46.065Z,24.7
2022-11-21T04:51:49.044Z,24.8
2022-11-21T04:52:51.558Z,24.8
2022-11-21T04:53:53.789Z,24.8
2022-11-21T04:54:56.274Z,24.6
2022-11-21T04:55:58.481Z,24.8
2022-11-21T04:57:00.961Z,24.8
2022-11-21T04:58:03.431Z,24.8
2022-11-21T04:59:05.375Z,24.8
2022-11-21T05:00:07.845Z,24.8
2022-11-21T05:01:10.392Z,24.9
2022-11-21T05:02:13.404Z,25
2022-11-21T05:03:15.627Z,24.7
2022-11-21T05:04:18.102Z,24.8
2022-11-21T05:05:19.779Z,24.9
2022-11-21T05:06:22.194Z,24.8
2022-11-21T05:07:24.817Z,24.9
2022-11-21T05:08:27.264Z,24.9
2022-11-21T05:09:29.447Z,24.7
2022-11-21T05:10:31.660Z,24.8
2022-11-21T05:11:34.136Z,24.9
2022-11-21T05:12:36.609Z,24.9
2022-11-21T05:13:39.090Z,24.8
2022-11-21T05:14:41.571Z,24.8
2022-11-21T05:15:44.063Z,24.7
2022-11-21T05:16:46.554Z,24.9
2022-11-21T05:17:48.757Z,24.9
2022-11-21T05:18:51.240Z,24.6
2022-11-21T05:19:53.455Z,24.5
2022-11-21T05:20:55.673Z,24.8
2022-11-21T05:21:57.895Z,24.7
2022-11-21T05:23:00.456Z,24.8
2022-11-21T05:24:03.029Z,24.6
2022-11-21T05:25:05.520Z,24.8
2022-11-21T05:26:08.000Z,24.7
2022-11-21T05:27:10.486Z,24.7
2022-11-21T05:28:12.982Z,24.5
2022-11-21T05:29:15.460Z,24.6
2022-11-21T05:30:17.969Z,24.7
2022-11-21T05:31:20.206Z,24.7
2022-11-21T05:32:22.712Z,24.6
2022-11-21T05:33:24.901Z,24.5
2022-11-21T05:34:27.611Z,24.7
2022-11-21T05:35:31.774Z,24.7
2022-11-21T05:36:33.989Z,24.6
2022-11-21T05:37:36.212Z,24.7
2022-11-21T05:38:38.832Z,24.7
2022-11-21T05:39:41.034Z,24.7
2022-11-21T05:40:43.256Z,24.5
2022-11-21T05:41:45.463Z,24.7
2022-11-21T05:42:47.957Z,24.6
2022-11-21T05:43:50.159Z,24.7
2022-11-21T05:44:52.642Z,24.8
2022-11-21T05:45:55.118Z,24.7
2022-11-21T05:46:57.592Z,24.9
2022-11-21T05:47:59.249Z,24.7
2022-11-21T05:49:01.719Z,24.5
2022-11-21T05:50:03.935Z,24.5
2022-11-21T05:51:06.407Z,24.8
2022-11-21T05:52:08.892Z,24.8
2022-11-21T05:53:10.574Z,24.6
2022-11-21T05:54:13.167Z,24.3
2022-11-21T05:55:15.742Z,24.6
2022-11-21T05:56:18.345Z,24.7
2022-11-21T05:57:20.623Z,24.5
2022-11-21T05:58:22.557Z,24.6
2022-11-21T05:59:25.033Z,24.5
2022-11-21T06:00:27.248Z,24.7
2022-11-21T06:01:29.731Z,24.6
2022-11-21T06:02:32.232Z,24.5
2022-11-21T06:03:34.920Z,24.2
2022-11-21T06:04:37.127Z,24.7
2022-11-21T06:05:39.054Z,24.5
2022-11-21T06:06:40.972Z,24.5
2022-11-21T06:07:43.523Z,24.7
2022-11-21T06:08:46.478Z,24.5
2022-11-21T06:09:49.070Z,24.5
2022-11-21T06:10:51.282Z,24.4
2022-11-21T06:11:53.791Z,24.5
2022-11-21T06:12:55.817Z,24.4
2022-11-21T06:13:57.732Z,24.6
2022-11-21T06:14:59.949Z,24.6
2022-11-21T06:16:02.144Z,24.7
2022-11-21T06:17:04.670Z,24.7
2022-11-21T06:18:07.140Z,24.8
2022-11-21T06:19:09.617Z,24.5
2022-11-21T06:20:12.125Z,24.4
2022-11-21T06:21:14.602Z,24.5
2022-11-21T06:22:16.539Z,24.5
2022-11-21T06:23:19.035Z,24.3
2022-11-21T06:24:22.410Z,24.6
2022-11-21T06:25:25.108Z,24.5
2022-11-21T06:26:27.590Z,24.5
2022-11-21T06:27:30.064Z,24.4
2022-11-21T06:28:32.552Z,24.6
2022-11-21T06:29:34.778Z,24.5
2022-11-21T06:30:37.259Z,24.4
2022-11-21T06:31:39.451Z,24.5
2022-11-21T06:32:41.704Z,24.4
2022-11-21T06:33:44.452Z,24.5
2022-11-21T06:34:46.933Z,24.6
2022-11-21T06:35:49.137Z,24.7
2022-11-21T06:36:50.791Z,24.4
2022-11-21T06:37:53.751Z,24.3
2022-11-21T06:38:55.797Z,24.6
2022-11-21T06:39:58.105Z,24.5
2022-11-21T06:41:00.730Z,24.8
2022-11-21T06:42:03.332Z,24.5
2022-11-21T06:43:05.888Z,24.2
2022-11-21T06:44:08.097Z,24.2
2022-11-21T06:45:10.300Z,24.3
2022-11-21T06:46:12.205Z,24.4
2022-11-21T06:47:14.411Z,24.5
2022-11-21T06:48:16.633Z,24.6
2022-11-21T06:49:19.121Z,24.5
2022-11-21T06:50:21.350Z,24.5
2022-11-21T06:51:23.554Z,24.4
2022-11-21T06:52:26.089Z,24.6
2022-11-21T06:53:28.593Z,24.4
2022-11-21T06:54:31.017Z,24.8
2022-11-21T06:55:35.281Z,24.5
2022-11-21T06:56:37.851Z,24.6
2022-11-21T06:57:39.755Z,24.6
2022-11-21T06:58:41.670Z,24.3
2022-11-21T06:59:44.150Z,24.4
2022-11-21T07:00:46.063Z,24.5
2022-11-21T07:01:48.374Z,24.4
2022-11-21T07:02:50.723Z,24.4
2022-11-21T07:03:52.680Z,24.4
2022-11-21T07:04:55.187Z,24.3
2022-11-21T07:05:57.664Z,24.4
2022-11-21T07:06:59.731Z,24.5
2022-11-21T07:08:02.182Z,24.5
2022-11-21T07:10:14.121Z,24.6
2022-11-21T07:11:24.859Z,24.3
2022-11-21T07:12:21.042Z,24.6
2022-11-21T07:13:23.611Z,24.1
2022-11-21T07:14:26.112Z,24.4
2022-11-21T07:15:27.776Z,24.5
2022-11-21T07:16:29.974Z,24.5
2022-11-21T07:17:31.907Z,24.2
2022-11-21T07:18:34.093Z,24.3
2022-11-21T07:19:40.691Z,24.5
2022-11-21T07:20:41.488Z,24.4
2022-11-21T07:21:43.176Z,24.2
2022-11-21T07:22:45.696Z,24.4
2022-11-21T07:23:47.658Z,24.4
2022-11-21T07:24:50.171Z,24.6
2022-11-21T07:25:52.657Z,24.5
2022-11-21T07:26:54.900Z,24.3
2022-11-21T07:27:57.396Z,24.5
2022-11-21T07:28:59.994Z,24.5
2022-11-21T07:30:02.515Z,24.4
2022-11-21T07:31:08.655Z,24.3
2022-11-21T07:32:09.732Z,24.5
2022-11-21T07:33:11.909Z,24.1
2022-11-21T07:34:14.127Z,24.4
2022-11-21T07:35:15.784Z,24.2
2022-11-21T07:36:18.268Z,24.1
2022-11-21T07:37:20.482Z,24.4
2022-11-21T07:38:22.709Z,24.2
2022-11-21T07:39:24.998Z,24.4
2022-11-21T07:40:28.802Z,24.3
2022-11-21T07:41:31.067Z,24.3
2022-11-21T07:42:32.754Z,24.6
2022-11-21T07:43:34.967Z,24.5
2022-11-21T07:44:37.636Z,24.3
2022-11-21T07:45:39.856Z,24.5
2022-11-21T07:46:42.098Z,24.4
2022-11-21T07:47:44.306Z,24
2022-11-21T07:48:46.499Z,24.1
2022-11-21T07:49:48.984Z,24.3
2022-11-21T07:50:51.217Z,24.3
2022-11-21T07:51:53.471Z,24.5
2022-11-21T07:52:55.983Z,24.6
2022-11-21T07:53:57.891Z,24.4
2022-11-21T07:55:00.109Z,24.4
2022-11-21T07:56:02.603Z,24.3
2022-11-21T07:57:04.809Z,24.3
2022-11-21T07:58:06.753Z,24.5
2022-11-21T07:59:09.238Z,24.5
2022-11-21T08:00:11.822Z,24.2
2022-11-21T08:01:14.101Z,24.2
2022-11-21T08:02:16.643Z,24.5
2022-11-21T08:03:18.982Z,24.3
2022-11-21T08:04:20.639Z,24.3
2022-11-21T08:05:22.560Z,24.5
2022-11-21T08:06:24.786Z,24.2
2022-11-21T08:07:27.058Z,24.3
2022-11-21T08:08:29.830Z,24.5
2022-11-21T08:09:34.898Z,24.2
2022-11-21T08:10:36.776Z,24.1
2022-11-21T08:11:38.752Z,24.2
2022-11-21T08:12:40.989Z,24.2
2022-11-21T08:13:43.518Z,24.2
2022-11-21T08:14:46.033Z,24.3
2022-11-21T08:15:48.608Z,24.2
2022-11-21T08:16:51.095Z,24.3
2022-11-21T08:17:53.601Z,24.4
2022-11-21T08:18:55.544Z,24.3
2022-11-21T08:19:58.027Z,24.2
2022-11-21T08:21:00.246Z,24.5
2022-11-21T08:22:02.725Z,24.4
2022-11-21T08:23:04.954Z,24.2
2022-11-21T08:24:06.900Z,24.5
2022-11-21T08:25:09.109Z,24.4
2022-11-21T08:26:11.324Z,24.3
2022-11-21T08:27:13.281Z,24.6
2022-11-21T08:28:15.496Z,24.6
2022-11-21T08:29:17.441Z,24.2
2022-11-21T08:30:19.925Z,24.4
2022-11-21T08:31:22.572Z,24.3
2022-11-21T08:32:24.758Z,23.9
2022-11-21T08:33:26.984Z,24.5
2022-11-21T08:34:28.940Z,24.3
2022-11-21T08:35:31.446Z,24.4
2022-11-21T08:36:33.953Z,24.6
2022-11-21T08:37:36.447Z,24.6
2022-11-21T08:38:38.368Z,24.3
2022-11-21T08:39:40.587Z,24.5
2022-11-21T08:40:42.512Z,24.3
2022-11-21T08:41:44.169Z,24.3
2022-11-21T08:42:46.382Z,24.4
2022-11-21T08:43:48.895Z,24.4
2022-11-21T08:44:51.120Z,24.4
2022-11-21T08:45:53.323Z,24.6
2022-11-21T08:46:55.895Z,24.6
2022-11-21T08:47:58.124Z,24.2
2022-11-21T08:49:00.624Z,24.5
2022-11-21T08:50:05.924Z,24.6
2022-11-21T08:51:08.114Z,24.2
2022-11-21T08:52:10.317Z,24.3
2022-11-21T08:53:12.807Z,24.2
2022-11-21T08:54:15.321Z,24.4
2022-11-21T08:55:17.521Z,24.4
2022-11-21T08:56:20.037Z,24.6
2022-11-21T08:57:22.517Z,24.4
2022-11-21T08:58:24.996Z,24.7
2022-11-21T08:59:27.475Z,24.6
2022-11-21T09:00:29.412Z,24.1
2022-11-21T09:01:31.408Z,24.1
2022-11-21T09:02:34.309Z,24.2
2022-11-21T09:03:36.840Z,24.2
2022-11-21T09:04:39.030Z,24.3
2022-11-21T09:05:41.264Z,24.6
2022-11-21T09:06:43.482Z,24.1
2022-11-21T09:07:47.433Z,24.4
2022-11-21T09:08:50.245Z,24.4
2022-11-21T09:09:52.741Z,24.4
2022-11-21T09:10:54.953Z,24.6
2022-11-21T09:11:57.168Z,24.3
2022-11-21T09:12:59.380Z,24.5
2022-11-21T09:14:01.635Z,24.4
2022-11-21T09:15:04.153Z,24.2
2022-11-21T09:16:06.365Z,24.5
2022-11-21T09:17:08.584Z,24.2
2022-11-21T09:18:11.205Z,24.3
2022-11-21T09:19:13.688Z,24.5
2022-11-21T09:20:16.207Z,24.4
2022-11-21T09:21:18.924Z,24.4
2022-11-21T09:22:20.840Z,24.5
2022-11-21T09:23:23.321Z,24.3
2022-11-21T09:24:25.536Z,24.1
2022-11-21T09:25:27.724Z,24.2
2022-11-21T09:26:29.653Z,24.2
2022-11-21T09:27:32.137Z,24.4
2022-11-21T09:28:34.638Z,24.4
2022-11-21T09:29:36.859Z,24.6
2022-11-21T09:30:39.360Z,24.2
2022-11-21T09:31:41.028Z,24.2
2022-11-21T09:32:43.536Z,24.9
2022-11-21T09:33:47.825Z,24.2
2022-11-21T09:34:51.133Z,24.2
2022-11-21T09:35:53.336Z,24.1
2022-11-21T09:36:55.874Z,24.2
2022-11-21T09:37:58.369Z,24.4
2022-11-21T09:39:00.297Z,24.4
2022-11-21T09:40:02.512Z,24.2
2022-11-21T09:41:05.927Z,24.1
2022-11-21T09:42:07.873Z,23.9
2022-11-21T09:43:10.076Z,24.2
2022-11-21T09:44:12.272Z,24.6
2022-11-21T09:45:14.284Z,24.3
2022-11-21T09:46:16.470Z,24.5
2022-11-21T09:47:18.476Z,24.2
2022-11-21T09:48:20.692Z,24.5
2022-11-21T09:49:23.557Z,24.1
2022-11-21T09:50:26.395Z,24.1
2022-11-21T09:51:29.058Z,24.1
2022-11-21T09:52:31.259Z,24.3
2022-11-21T09:53:33.755Z,24.2
2022-11-21T09:54:35.680Z,24.5
2022-11-21T09:55:38.166Z,24.3
2022-11-21T09:56:40.380Z,24.1
2022-11-21T09:57:42.561Z,24.6
2022-11-21T09:58:44.498Z,23.9
2022-11-21T09:59:48.150Z,24.1
2022-11-21T10:00:50.173Z,24.5
2022-11-21T10:01:52.744Z,24
2022-11-21T10:02:54.980Z,24.4
2022-11-21T10:03:57.477Z,24.4
2022-11-21T10:05:00.054Z,24.5
2022-11-21T10:06:02.006Z,24.5
2022-11-21T10:07:04.679Z,23.9
2022-11-21T10:08:07.011Z,24.3
2022-11-21T10:09:08.951Z,24.3
2022-11-21T10:10:11.440Z,24.3
2022-11-21T10:11:19.324Z,24.1
2022-11-21T10:12:18.334Z,23.6
2022-11-21T10:13:20.826Z,24.1
2022-11-21T10:14:23.020Z,24.3
2022-11-21T10:15:25.274Z,23.8
2022-11-21T10:16:27.497Z,24
2022-11-21T10:17:29.728Z,24.2
2022-11-21T10:18:32.261Z,24.1
2022-11-21T10:19:34.470Z,24.6
2022-11-21T10:20:37.027Z,24
2022-11-21T10:21:39.510Z,24.4
2022-11-21T10:22:41.445Z,24.1
2022-11-21T10:23:43.926Z,23.9
2022-11-21T10:24:46.168Z,24.4
2022-11-21T10:25:48.065Z,23.9
2022-11-21T10:26:50.286Z,24.1
2022-11-21T10:27:52.788Z,24.1
2022-11-21T10:28:55.279Z,24.1
2022-11-21T10:29:57.788Z,24.4
2022-11-21T10:31:00.279Z,24.2
2022-11-21T10:32:02.762Z,24.2
2022-11-21T10:33:04.708Z,24.1
2022-11-21T10:34:06.673Z,24.5
2022-11-21T10:35:09.190Z,24.2
2022-11-21T10:36:11.769Z,23.9
2022-11-21T10:37:14.258Z,24.3
2022-11-21T10:38:16.494Z,23.8
2022-11-21T10:39:18.992Z,24
2022-11-21T10:40:20.922Z,24
2022-11-21T10:41:22.865Z,23.8
2022-11-21T10:42:25.394Z,24.1
2022-11-21T10:43:27.890Z,24.5
2022-11-21T10:44:30.596Z,24.1
2022-11-21T10:45:32.514Z,23.6
2022-11-21T10:46:34.739Z,24.1
2022-11-21T10:47:36.943Z,24.2
2022-11-21T10:48:39.181Z,24.5
2022-11-21T10:49:41.401Z,24.2
2022-11-21T10:50:43.889Z,24.1
2022-11-21T10:51:47.144Z,24.3
2022-11-21T10:52:49.467Z,24.5
2022-11-21T10:53:51.692Z,24.3
2022-11-21T10:54:53.898Z,23.9
2022-11-21T10:55:56.415Z,24.3
2022-11-21T10:56:57.786Z,23.9
2022-11-21T10:58:00.013Z,24
2022-11-21T10:59:01.719Z,23.9
2022-11-21T11:00:03.656Z,24.2
2022-11-21T11:01:06.203Z,24.1
2022-11-21T11:02:08.807Z,24.4
2022-11-21T11:03:10.771Z,24.5
2022-11-21T11:04:27.068Z,24
2022-11-21T11:05:18.305Z,24.3
2022-11-21T11:06:20.511Z,24.2
2022-11-21T11:07:23.182Z,24
2022-11-21T11:08:25.991Z,23.5
2022-11-21T11:09:28.208Z,23.8
2022-11-21T11:10:30.437Z,23.7
2022-11-21T11:11:32.930Z,24
2022-11-21T11:12:35.437Z,23.7
2022-11-21T11:13:46.642Z,23.8
2022-11-21T11:14:42.928Z,24.2
2022-11-21T11:15:45.188Z,24.3
2022-11-21T11:16:47.414Z,24.3
2022-11-21T11:17:49.941Z,24.4
2022-11-21T11:18:52.422Z,24.1
2022-11-21T11:19:54.642Z,24.3
2022-11-21T11:20:58.051Z,24.6
2022-11-21T11:22:00.656Z,24.7
2022-11-21T11:23:03.250Z,24
2022-11-21T11:24:05.498Z,24.3
2022-11-21T11:25:07.699Z,24.1
2022-11-21T11:26:09.648Z,24.2
2022-11-21T11:27:12.118Z,23.8
2022-11-21T11:28:14.039Z,23.7
2022-11-21T11:29:16.017Z,24.1
2022-11-21T11:30:18.501Z,24.3
2022-11-21T11:31:20.739Z,24.5
2022-11-21T11:32:23.264Z,24.3
2022-11-21T11:33:25.767Z,23.9
2022-11-21T11:34:27.986Z,24.1
2022-11-21T11:35:30.212Z,23.6
2022-11-21T11:36:32.468Z,24.2
2022-11-21T11:37:38.818Z,24.1
2022-11-21T11:38:39.421Z,23.9
2022-11-21T11:39:41.775Z,24.2
2022-11-21T11:40:44.000Z,23.8
2022-11-21T11:41:47.125Z,24.2
2022-11-21T11:42:49.659Z,24.4
2022-11-21T11:43:51.869Z,23.8
2022-11-21T11:44:53.540Z,24.1
2022-11-21T11:45:56.024Z,24.2
2022-11-21T11:46:58.500Z,24.1
2022-11-21T11:48:00.983Z,23.9
2022-11-21T11:49:20.128Z,24.3
2022-11-21T11:50:08.491Z,24.3
2022-11-21T11:51:10.993Z,24.6
2022-11-21T11:52:12.953Z,24.2
2022-11-21T11:53:15.164Z,24
2022-11-21T11:54:17.724Z,23.9
2022-11-21T11:55:20.294Z,24.1
2022-11-21T11:56:22.502Z,24.1
2022-11-21T11:57:24.990Z,24.4
2022-11-21T11:58:26.918Z,24.1
2022-11-21T11:59:29.410Z,24.1
2022-11-21T12:00:32.746Z,24.4
2022-11-21T12:01:34.982Z,24.4
2022-11-21T12:02:37.224Z,24.1
2022-11-21T12:03:39.781Z,24.1
2022-11-21T12:04:41.737Z,24
2022-11-21T12:05:44.226Z,23.9
2022-11-21T12:08:39.326Z,24.2
2022-11-21T12:08:57.634Z,23.7
2022-11-21T12:10:00.372Z,24.1
2022-11-21T12:11:03.013Z,23.9
2022-11-21T12:12:04.959Z,24
2022-11-21T12:13:07.164Z,24.4
2022-11-21T12:14:09.391Z,24.4
2022-11-21T12:15:11.339Z,23.9
2022-11-21T12:16:14.183Z,24.1
2022-11-21T12:17:16.832Z,23.7
2022-11-21T12:18:19.305Z,24.3
2022-11-21T12:19:21.675Z,24.1
2022-11-21T12:20:23.878Z,24
2022-11-21T12:21:26.411Z,24.1
2022-11-21T12:22:28.881Z,24
2022-11-21T12:23:31.126Z,23.7
2022-11-21T12:24:35.188Z,23.7
2022-11-21T12:25:38.300Z,23.9
2022-11-21T12:26:40.900Z,24.5
2022-11-21T12:27:43.381Z,24.4
2022-11-21T12:28:45.610Z,24.6
2022-11-21T12:29:48.901Z,24.1
2022-11-21T12:30:51.408Z,24.3
2022-11-21T12:31:53.611Z,24.2
2022-11-21T12:32:56.155Z,24
2022-11-21T12:34:02.826Z,24
2022-11-21T12:35:04.760Z,23.9
2022-11-21T12:36:17.089Z,24.3
2022-11-21T12:37:12.223Z,24.1
2022-11-21T12:38:14.432Z,24.2
2022-11-21T12:39:16.949Z,24
2022-11-21T12:40:18.881Z,24.4
2022-11-21T12:41:21.368Z,24.7
2022-11-21T12:42:24.071Z,24.6
2022-11-21T12:43:26.268Z,23.7
2022-11-21T12:44:28.198Z,24.2
2022-11-21T12:45:30.392Z,24.1
2022-11-21T12:46:32.349Z,24
2022-11-21T12:47:34.540Z,24.1
2022-11-21T12:48:37.029Z,24.3
2022-11-21T12:49:39.051Z,24.3
2022-11-21T12:50:41.263Z,24
2022-11-21T12:51:43.778Z,24.4
2022-11-21T12:52:47.267Z,24
2022-11-21T12:53:49.224Z,24.4
2022-11-21T12:54:51.150Z,24
2022-11-21T12:55:53.647Z,24.1
2022-11-21T12:56:55.295Z,24.4
2022-11-21T12:57:58.012Z,24.1
2022-11-21T12:59:00.226Z,24.1
2022-11-21T13:00:02.707Z,24.5
2022-11-21T13:01:04.668Z,24.3
2022-11-21T13:02:07.546Z,24.2
2022-11-21T13:03:09.466Z,24.2
2022-11-21T13:04:11.665Z,24.1
2022-11-21T13:05:13.889Z,24.2
2022-11-21T13:06:16.100Z,24.3
2022-11-21T13:07:18.695Z,24.2
2022-11-21T13:08:24.355Z,24.1
2022-11-21T13:09:26.504Z,24.5
2022-11-21T13:10:30.891Z,24.5
2022-11-21T13:11:33.387Z,24
2022-11-21T13:12:35.893Z,24.2
2022-11-21T13:13:38.542Z,24.6
2022-11-21T13:14:40.482Z,23.7
2022-11-21T13:15:42.721Z,23.9
2022-11-21T13:16:44.955Z,24.3
2022-11-21T13:17:47.388Z,24.5
2022-11-21T13:18:51.165Z,24.2
2022-11-21T13:19:53.439Z,24.1
2022-11-21T13:20:55.654Z,23.9
2022-11-21T13:21:57.867Z,24.3
2022-11-21T13:23:00.338Z,24.1
2022-11-21T13:24:02.847Z,24.3
2022-11-21T13:25:05.192Z,23.8
2022-11-21T13:26:07.474Z,24.4
2022-11-21T13:27:09.690Z,23.9
2022-11-21T13:28:11.915Z,24.4
2022-11-21T13:29:14.682Z,24.3
2022-11-21T13:30:17.178Z,24.3
2022-11-21T13:31:19.692Z,24.5
2022-11-21T13:32:21.617Z,23.8
2022-11-21T13:33:24.156Z,24.4
2022-11-21T13:34:26.604Z,24.5
2022-11-21T13:35:30.330Z,24.6
2022-11-21T13:36:32.856Z,24
2022-11-21T13:37:34.820Z,24
2022-11-21T13:38:36.765Z,23.9
2022-11-21T13:39:39.010Z,24.2
2022-11-21T13:40:41.504Z,24.1
2022-11-21T13:41:43.764Z,24.2
2022-11-21T13:42:58.271Z,24.4
2022-11-21T13:43:51.267Z,23.9
2022-11-21T13:44:53.895Z,24.1
2022-11-21T13:45:56.415Z,24.3
2022-11-21T13:46:58.662Z,24.3
2022-11-21T13:48:01.185Z,23.8
2022-11-21T13:49:03.690Z,24
2022-11-21T13:50:05.648Z,24.2
2022-11-21T13:51:08.383Z,24.5
2022-11-21T13:52:10.858Z,23.7
2022-11-21T13:53:13.051Z,24.6
2022-11-21T13:54:15.542Z,24.2
2022-11-21T13:55:18.058Z,24.4
2022-11-21T13:56:19.979Z,24.2
2022-11-21T13:57:21.972Z,24.6
2022-11-21T13:58:24.498Z,24.1